Jamesville, NC

4:34 PM EDT on August 23, 2014 (GMT -0400)
Warren | Change Station
CLOSE
Current Station
Airport
Location: Washington,
Elevation: 39 ft
Nearby Weather Stations

Elev 39 ft 35.57 °N, 77.05 °W | Updated 19 minutes ago

Scattered Clouds
Scattered Clouds
80 °F
Feels Like 80 °F
N
10
Wind Variable Wind from NE

Today
High -- | Low -- °F
--% Chance of Precip.
Yesterday
High -- | Low -- °F
Precip. -- in
6:32 AM 7:47 PM
Waning Crescent, 3% visible
Pressure 29.92 in
Visibility 10.0 miles
Clouds Scattered Clouds 5000 ft
Scattered Clouds 7000 ft
Dew Point 72 °F
Humidity 78%
Rainfall 1.46 in
Snow Depth Not available.
UV 4 out of 12
Pollen 8.40 out of 12
Air Quality Not available.
Flu Activity Not available.
METAR KOCW 232015Z AUTO 05009KT 10SM SCT050 SCT070 26/22 A2992 RMK AO2 T02640223

More Conditions Fewer Conditions

Pressure 29.92 in
Visibility 10.0 miles
Clouds Scattered Clouds 5000 ft
Scattered Clouds 7000 ft
Dew Point 72 °F
Humidity 78%
Rainfall 1.46 in
Snow Depth Not available.
UV 4 out of 12
Pollen 8.40 out of 12
Air Quality Not available.
Flu Activity Not available.
METAR KOCW 232015Z AUTO 05009KT 10SM SCT050 SCT070 26/22 A2992 RMK AO2 T02640223

More Conditions Fewer Conditions

10-Day Weather Forecast

Almanac

Astronomy

Aug. 23, 2014 Rise Set
Actual Time 6:32 AM EDT 7:47 PM EDT
Civil Twilight 6:05 AM EDT 8:13 PM EDT
Nautical Twilight 5:34 AM EDT 8:45 PM EDT
Astronomical Twilight 5:01 AM EDT 9:18 PM EDT
Moon 4:48 AM EDT 6:30 PM EDT
Length of Visible Light 14h 07m
Length of Day
13h 14m
Tomorrow will be 2m 6s shorter.
Waning Crescent, 3% of the Moon is Illuminated
Today
Waning Crescent
Aug 25
New
Sep 2
First Quarter
Sep 8
Full
Sep 15
Last Quarter

Today's Extremes

State Highs State Lows

Community

WunderPhotos

Upload Photos

1,746,619 photos uploaded!

WunderBlogs® & News

Nearby

Snow Depth

Station Depth Elevation
No new snow has been reported.

Earthquake Activity

City Distance Mag. Time & Date
No recent earthquake activity has been reported nearby.
Minimum magnitude displayed is 2.5.

Coastal Water Temperatures

Place Temperature
Oregon Inlet Marina, NC 81.0 °F
Duck Pier, NC 80.1 °F
Hatteras, NC 82.9 °F
Money Point, VA 86.0 °F
Sewells Point, VA 80.1 °F
Chesapeake Bay Bridge Tunnel, VA 79.0 °F

Nearby Weather Stations